sensor_id;sensor_type;location;lat;lon;timestamp;pressure;altitude;pressure_sealevel;temperature;humidity
71764;BME280;59602;52.142;5.408;2023-05-02T00:00:27;102126.09;;;11.98;82.34
71764;BME280;59602;52.142;5.408;2023-05-02T00:02:54;102128.47;;;12.00;82.50
71764;BME280;59602;52.142;5.408;2023-05-02T00:05:21;102123.03;;;12.00;82.18
71764;BME280;59602;52.142;5.408;2023-05-02T00:07:53;102123.81;;;12.00;81.99
71764;BME280;59602;52.142;5.408;2023-05-02T00:10:20;102124.88;;;11.96;82.42
71764;BME280;59602;52.142;5.408;2023-05-02T00:12:47;102128.38;;;11.96;82.43
71764;BME280;59602;52.142;5.408;2023-05-02T00:15:13;102126.97;;;12.02;82.57
71764;BME280;59602;52.142;5.408;2023-05-02T00:17:40;102127.69;;;11.99;82.26
71764;BME280;59602;52.142;5.408;2023-05-02T00:20:09;102126.09;;;11.98;81.96
71764;BME280;59602;52.142;5.408;2023-05-02T00:22:36;102124.53;;;11.97;82.07
71764;BME280;59602;52.142;5.408;2023-05-02T00:25:03;102133.16;;;11.99;82.01
71764;BME280;59602;52.142;5.408;2023-05-02T00:27:30;102138.59;;;11.99;81.78
71764;BME280;59602;52.142;5.408;2023-05-02T00:29:58;102137.00;;;11.98;81.87
71764;BME280;59602;52.142;5.408;2023-05-02T00:32:26;102145.19;;;11.98;82.04
71764;BME280;59602;52.142;5.408;2023-05-02T00:34:53;102141.75;;;12.01;81.80
71764;BME280;59602;52.142;5.408;2023-05-02T00:37:20;102133.63;;;12.05;81.69
71764;BME280;59602;52.142;5.408;2023-05-02T00:39:47;102132.50;;;12.06;81.72
71764;BME280;59602;52.142;5.408;2023-05-02T00:42:13;102137.97;;;12.06;81.96
71764;BME280;59602;52.142;5.408;2023-05-02T00:44:40;102125.91;;;12.07;81.94
71764;BME280;59602;52.142;5.408;2023-05-02T00:47:07;102142.53;;;12.02;82.27
71764;BME280;59602;52.142;5.408;2023-05-02T00:49:33;102141.69;;;11.98;82.65
71764;BME280;59602;52.142;5.408;2023-05-02T00:52:02;102146.25;;;11.94;82.98
71764;BME280;59602;52.142;5.408;2023-05-02T00:54:29;102155.16;;;11.91;83.51
71764;BME280;59602;52.142;5.408;2023-05-02T00:56:56;102159.00;;;11.90;83.60
71764;BME280;59602;52.142;5.408;2023-05-02T00:59:23;102157.44;;;11.89;83.93
71764;BME280;59602;52.142;5.408;2023-05-02T01:02:16;102162.09;;;11.88;83.98
71764;BME280;59602;52.142;5.408;2023-05-02T01:05:01;102159.69;;;11.87;84.31
71764;BME280;59602;52.142;5.408;2023-05-02T01:07:50;102171.56;;;11.78;84.03
71764;BME280;59602;52.142;5.408;2023-05-02T01:10:31;102172.44;;;11.82;84.24
71764;BME280;59602;52.142;5.408;2023-05-02T01:13:09;102164.72;;;11.84;84.27
71764;BME280;59602;52.142;5.408;2023-05-02T01:15:37;102162.34;;;11.83;85.13
71764;BME280;59602;52.142;5.408;2023-05-02T01:18:05;102172.78;;;11.81;85.26
71764;BME280;59602;52.142;5.408;2023-05-02T01:20:45;102174.75;;;11.80;84.39
71764;BME280;59602;52.142;5.408;2023-05-02T01:23:27;102170.69;;;11.74;83.76
71764;BME280;59602;52.142;5.408;2023-05-02T01:26:29;102175.75;;;11.72;83.63
71764;BME280;59602;52.142;5.408;2023-05-02T01:29:13;102176.09;;;11.71;82.92
71764;BME280;59602;52.142;5.408;2023-05-02T01:31:43;102178.38;;;11.69;82.37
71764;BME280;59602;52.142;5.408;2023-05-02T01:34:11;102179.88;;;11.66;82.16
71764;BME280;59602;52.142;5.408;2023-05-02T01:36:46;102190.44;;;11.68;82.07
71764;BME280;59602;52.142;5.408;2023-05-02T01:39:18;102188.31;;;11.61;81.53
71764;BME280;59602;52.142;5.408;2023-05-02T01:41:48;102186.63;;;11.56;81.62
71764;BME280;59602;52.142;5.408;2023-05-02T01:44:17;102195.25;;;11.58;81.34
71764;BME280;59602;52.142;5.408;2023-05-02T01:46:45;102193.78;;;11.61;81.49
71764;BME280;59602;52.142;5.408;2023-05-02T01:49:12;102202.97;;;11.56;81.34
71764;BME280;59602;52.142;5.408;2023-05-02T01:51:43;102199.47;;;11.56;81.51
71764;BME280;59602;52.142;5.408;2023-05-02T01:54:12;102215.38;;;11.54;81.45
71764;BME280;59602;52.142;5.408;2023-05-02T01:56:40;102220.19;;;11.45;80.99
71764;BME280;59602;52.142;5.408;2023-05-02T01:59:11;102219.69;;;11.39;80.81
71764;BME280;59602;52.142;5.408;2023-05-02T02:01:39;102222.75;;;11.37;80.92
71764;BME280;59602;52.142;5.408;2023-05-02T02:04:08;102218.88;;;11.38;81.42
71764;BME280;59602;52.142;5.408;2023-05-02T02:06:35;102218.19;;;11.41;81.03
71764;BME280;59602;52.142;5.408;2023-05-02T02:09:02;102216.88;;;11.35;80.69
71764;BME280;59602;52.142;5.408;2023-05-02T02:11:35;102211.75;;;11.34;80.77
71764;BME280;59602;52.142;5.408;2023-05-02T02:14:06;102215.03;;;11.39;80.62
71764;BME280;59602;52.142;5.408;2023-05-02T02:16:39;102220.03;;;11.37;80.70
71764;BME280;59602;52.142;5.408;2023-05-02T02:19:09;102228.53;;;11.36;80.71
71764;BME280;59602;52.142;5.408;2023-05-02T02:21:39;102237.88;;;11.35;80.45
71764;BME280;59602;52.142;5.408;2023-05-02T02:24:06;102239.38;;;11.32;80.52
71764;BME280;59602;52.142;5.408;2023-05-02T02:26:35;102242.75;;;11.29;80.29
71764;BME280;59602;52.142;5.408;2023-05-02T02:29:02;102249.44;;;11.32;80.11
71764;BME280;59602;52.142;5.408;2023-05-02T02:31:31;102251.03;;;11.33;79.79
71764;BME280;59602;52.142;5.408;2023-05-02T02:33:59;102255.06;;;11.23;78.97
71764;BME280;59602;52.142;5.408;2023-05-02T02:36:31;102249.19;;;11.21;79.09
71764;BME280;59602;52.142;5.408;2023-05-02T02:39:07;102257.44;;;11.25;78.76
71764;BME280;59602;52.142;5.408;2023-05-02T02:47:20;102271.56;;;11.14;78.15
71764;BME280;59602;52.142;5.408;2023-05-02T02:50:04;102264.84;;;11.12;78.13
71764;BME280;59602;52.142;5.408;2023-05-02T02:52:55;102270.06;;;11.17;77.84
71764;BME280;59602;52.142;5.408;2023-05-02T02:55:37;102274.38;;;11.18;78.22
71764;BME280;59602;52.142;5.408;2023-05-02T02:58:19;102276.75;;;11.19;77.27
71764;BME280;59602;52.142;5.408;2023-05-02T03:00:47;102270.84;;;11.17;77.47
71764;BME280;59602;52.142;5.408;2023-05-02T03:03:16;102278.25;;;11.17;77.56
71764;BME280;59602;52.142;5.408;2023-05-02T03:05:43;102282.34;;;11.11;77.22
71764;BME280;59602;52.142;5.408;2023-05-02T03:08:12;102283.72;;;11.05;77.53
71764;BME280;59602;52.142;5.408;2023-05-02T03:10:39;102286.91;;;11.07;77.61
71764;BME280;59602;52.142;5.408;2023-05-02T03:13:05;102297.78;;;11.07;77.38
71764;BME280;59602;52.142;5.408;2023-05-02T03:18:19;102304.81;;;11.08;77.93
71764;BME280;59602;52.142;5.408;2023-05-02T03:20:46;102306.31;;;11.05;77.83
71764;BME280;59602;52.142;5.408;2023-05-02T03:23:12;102301.53;;;11.02;77.53
71764;BME280;59602;52.142;5.408;2023-05-02T03:25:39;102301.88;;;11.00;77.23
71764;BME280;59602;52.142;5.408;2023-05-02T03:28:06;102308.34;;;10.96;77.25
71764;BME280;59602;52.142;5.408;2023-05-02T03:30:32;102312.69;;;10.97;77.84
71764;BME280;59602;52.142;5.408;2023-05-02T03:32:59;102317.34;;;10.96;77.55
71764;BME280;59602;52.142;5.408;2023-05-02T03:35:27;102309.50;;;10.95;77.52
71764;BME280;59602;52.142;5.408;2023-05-02T03:37:53;102315.28;;;10.93;77.39
71764;BME280;59602;52.142;5.408;2023-05-02T03:40:20;102320.41;;;10.95;77.70
71764;BME280;59602;52.142;5.408;2023-05-02T03:42:47;102321.53;;;10.94;77.81
71764;BME280;59602;52.142;5.408;2023-05-02T03:45:14;102333.66;;;10.96;77.44
71764;BME280;59602;52.142;5.408;2023-05-02T03:47:41;102331.28;;;10.95;77.16
71764;BME280;59602;52.142;5.408;2023-05-02T03:50:08;102335.81;;;10.91;77.19
71764;BME280;59602;52.142;5.408;2023-05-02T03:52:35;102335.81;;;10.91;77.37
71764;BME280;59602;52.142;5.408;2023-05-02T03:55:01;102337.31;;;10.88;77.82
71764;BME280;59602;52.142;5.408;2023-05-02T03:57:29;102341.16;;;10.87;77.24
71764;BME280;59602;52.142;5.408;2023-05-02T03:59:56;102341.41;;;10.82;77.34
71764;BME280;59602;52.142;5.408;2023-05-02T04:02:23;102344.47;;;10.80;77.37
71764;BME280;59602;52.142;5.408;2023-05-02T04:04:50;102348.53;;;10.87;77.49
71764;BME280;59602;52.142;5.408;2023-05-02T04:07:17;102348.97;;;10.89;77.40
71764;BME280;59602;52.142;5.408;2023-05-02T04:09:45;102349.69;;;10.86;77.70
71764;BME280;59602;52.142;5.408;2023-05-02T04:12:14;102354.09;;;10.78;77.50
71764;BME280;59602;52.142;5.408;2023-05-02T04:14:41;102352.88;;;10.75;77.56
71764;BME280;59602;52.142;5.408;2023-05-02T04:17:08;102356.38;;;10.76;76.48
71764;BME280;59602;52.142;5.408;2023-05-02T04:19:34;102362.19;;;10.74;76.36
71764;BME280;59602;52.142;5.408;2023-05-02T04:22:02;102359.91;;;10.76;75.62
71764;BME280;59602;52.142;5.408;2023-05-02T04:24:29;102361.47;;;10.77;75.16
71764;BME280;59602;52.142;5.408;2023-05-02T04:26:55;102368.53;;;10.78;75.31
71764;BME280;59602;52.142;5.408;2023-05-02T04:29:22;102367.94;;;10.73;74.95
71764;BME280;59602;52.142;5.408;2023-05-02T04:31:48;102382.69;;;10.72;74.86
71764;BME280;59602;52.142;5.408;2023-05-02T04:34:16;102382.69;;;10.72;75.00
71764;BME280;59602;52.142;5.408;2023-05-02T04:36:45;102390.84;;;10.72;75.03
71764;BME280;59602;52.142;5.408;2023-05-02T04:39:15;102396.50;;;10.67;75.18
71764;BME280;59602;52.142;5.408;2023-05-02T04:41:42;102405.47;;;10.55;75.71
71764;BME280;59602;52.142;5.408;2023-05-02T04:44:08;102406.03;;;10.48;76.67
71764;BME280;59602;52.142;5.408;2023-05-02T04:46:35;102406.03;;;10.48;77.02
71764;BME280;59602;52.142;5.408;2023-05-02T04:49:03;102414.91;;;10.45;76.39
71764;BME280;59602;52.142;5.408;2023-05-02T04:51:32;102423.94;;;10.37;76.17
71764;BME280;59602;52.142;5.408;2023-05-02T04:53:58;102419.28;;;10.37;75.57
71764;BME280;59602;52.142;5.408;2023-05-02T04:56:25;102425.31;;;10.43;75.36
71764;BME280;59602;52.142;5.408;2023-05-02T04:58:55;102422.69;;;10.47;75.48
71764;BME280;59602;52.142;5.408;2023-05-02T05:01:25;102434.72;;;10.46;74.45
71764;BME280;59602;52.142;5.408;2023-05-02T05:03:57;102426.44;;;10.42;74.63
71764;BME280;59602;52.142;5.408;2023-05-02T05:06:24;102438.91;;;10.43;74.61
71764;BME280;59602;52.142;5.408;2023-05-02T05:08:51;102435.72;;;10.41;73.82
71764;BME280;59602;52.142;5.408;2023-05-02T05:11:18;102440.03;;;10.42;73.10
71764;BME280;59602;52.142;5.408;2023-05-02T05:13:44;102444.69;;;10.42;73.90
71764;BME280;59602;52.142;5.408;2023-05-02T05:16:11;102454.53;;;10.46;73.26
71764;BME280;59602;52.142;5.408;2023-05-02T05:18:38;102457.38;;;10.50;73.26
71764;BME280;59602;52.142;5.408;2023-05-02T05:21:07;102458.63;;;10.52;73.20
71764;BME280;59602;52.142;5.408;2023-05-02T05:23:34;102462.25;;;10.56;72.80
71764;BME280;59602;52.142;5.408;2023-05-02T05:26:08;102467.81;;;10.60;73.04
71764;BME280;59602;52.142;5.408;2023-05-02T05:28:35;102469.28;;;10.57;72.31
71764;BME280;59602;52.142;5.408;2023-05-02T05:31:16;102487.31;;;10.50;72.76
71764;BME280;59602;52.142;5.408;2023-05-02T05:33:44;102482.31;;;10.52;72.40
71764;BME280;59602;52.142;5.408;2023-05-02T05:36:13;102482.19;;;10.48;72.44
71764;BME280;59602;52.142;5.408;2023-05-02T05:38:40;102486.25;;;10.42;72.82
71764;BME280;59602;52.142;5.408;2023-05-02T05:41:08;102494.53;;;10.46;72.49
71764;BME280;59602;52.142;5.408;2023-05-02T05:43:36;102497.94;;;10.43;71.49
71764;BME280;59602;52.142;5.408;2023-05-02T05:46:05;102498.94;;;10.38;71.40
71764;BME280;59602;52.142;5.408;2023-05-02T05:48:32;102502.09;;;10.40;70.08
71764;BME280;59602;52.142;5.408;2023-05-02T05:51:06;102522.75;;;10.41;71.15
71764;BME280;59602;52.142;5.408;2023-05-02T05:53:33;102521.03;;;10.36;70.13
71764;BME280;59602;52.142;5.408;2023-05-02T05:56:07;102517.84;;;10.34;70.61
71764;BME280;59602;52.142;5.408;2023-05-02T05:58:34;102529.66;;;10.38;71.14
71764;BME280;59602;52.142;5.408;2023-05-02T06:01:01;102532.38;;;10.51;70.52
71764;BME280;59602;52.142;5.408;2023-05-02T06:03:29;102536.59;;;10.48;69.79
71764;BME280;59602;52.142;5.408;2023-05-02T06:05:56;102533.41;;;10.46;69.17
71764;BME280;59602;52.142;5.408;2023-05-02T06:08:23;102541.56;;;10.46;69.32
71764;BME280;59602;52.142;5.408;2023-05-02T06:10:50;102544.50;;;10.41;68.96
71764;BME280;59602;52.142;5.408;2023-05-02T06:13:17;102549.38;;;10.48;70.21
71764;BME280;59602;52.142;5.408;2023-05-02T06:15:43;102546.81;;;10.64;69.23
71764;BME280;59602;52.142;5.408;2023-05-02T06:18:10;102548.38;;;10.65;70.38
71764;BME280;59602;52.142;5.408;2023-05-02T06:20:37;102558.84;;;10.75;69.96
71764;BME280;59602;52.142;5.408;2023-05-02T06:23:03;102566.31;;;10.78;68.79
71764;BME280;59602;52.142;5.408;2023-05-02T06:25:30;102562.34;;;10.75;68.04
71764;BME280;59602;52.142;5.408;2023-05-02T06:27:58;102567.94;;;10.79;68.72
71764;BME280;59602;52.142;5.408;2023-05-02T06:30:24;102568.94;;;10.74;67.93
71764;BME280;59602;52.142;5.408;2023-05-02T06:32:52;102578.56;;;10.72;67.62
71764;BME280;59602;52.142;5.408;2023-05-02T06:35:18;102581.06;;;10.77;67.00
71764;BME280;59602;52.142;5.408;2023-05-02T06:37:45;102581.31;;;10.84;66.74
71764;BME280;59602;52.142;5.408;2023-05-02T06:40:12;102580.19;;;10.85;66.77
71764;BME280;59602;52.142;5.408;2023-05-02T06:42:39;102598.31;;;10.81;66.65
71764;BME280;59602;52.142;5.408;2023-05-02T06:45:06;102598.78;;;10.83;67.20
71764;BME280;59602;52.142;5.408;2023-05-02T06:47:34;102592.78;;;10.90;66.57
71764;BME280;59602;52.142;5.408;2023-05-02T06:50:01;102601.50;;;10.83;66.38
71764;BME280;59602;52.142;5.408;2023-05-02T06:52:28;102615.09;;;10.83;66.72
71764;BME280;59602;52.142;5.408;2023-05-02T06:54:55;102615.28;;;10.66;66.33
71764;BME280;59602;52.142;5.408;2023-05-02T06:57:21;102621.13;;;10.55;66.69
71764;BME280;59602;52.142;5.408;2023-05-02T06:59:48;102623.06;;;10.55;67.94
71764;BME280;59602;52.142;5.408;2023-05-02T07:02:15;102636.59;;;10.64;67.59
71764;BME280;59602;52.142;5.408;2023-05-02T07:04:41;102643.28;;;10.66;67.39
71764;BME280;59602;52.142;5.408;2023-05-02T07:07:08;102642.59;;;10.69;67.43
71764;BME280;59602;52.142;5.408;2023-05-02T07:09:34;102649.84;;;10.65;68.02
71764;BME280;59602;52.142;5.408;2023-05-02T07:12:03;102652.22;;;10.67;68.24
71764;BME280;59602;52.142;5.408;2023-05-02T07:14:32;102648.78;;;10.78;67.28
71764;BME280;59602;52.142;5.408;2023-05-02T07:16:59;102645.91;;;10.75;68.68
71764;BME280;59602;52.142;5.408;2023-05-02T07:19:25;102647.84;;;10.74;68.19
71764;BME280;59602;52.142;5.408;2023-05-02T07:21:52;102656.94;;;10.78;67.99
71764;BME280;59602;52.142;5.408;2023-05-02T07:24:18;102655.00;;;10.79;67.54
71764;BME280;59602;52.142;5.408;2023-05-02T07:26:45;102665.09;;;10.78;66.39
71764;BME280;59602;52.142;5.408;2023-05-02T07:29:12;102680.28;;;10.79;66.12
71764;BME280;59602;52.142;5.408;2023-05-02T07:31:38;102672.13;;;10.79;66.24
71764;BME280;59602;52.142;5.408;2023-05-02T07:34:05;102679.28;;;10.84;66.77
71764;BME280;59602;52.142;5.408;2023-05-02T07:36:32;102667.38;;;10.89;65.55
71764;BME280;59602;52.142;5.408;2023-05-02T07:38:58;102676.69;;;10.88;65.76
71764;BME280;59602;52.142;5.408;2023-05-02T07:41:25;102673.50;;;10.86;65.92
71764;BME280;59602;52.142;5.408;2023-05-02T07:43:51;102684.31;;;10.94;66.02
71764;BME280;59602;52.142;5.408;2023-05-02T07:46:18;102689.06;;;10.97;65.65
71764;BME280;59602;52.142;5.408;2023-05-02T07:48:44;102686.75;;;10.87;65.03
71764;BME280;59602;52.142;5.408;2023-05-02T07:51:11;102686.88;;;10.91;65.82
71764;BME280;59602;52.142;5.408;2023-05-02T07:53:38;102683.63;;;10.97;64.54
71764;BME280;59602;52.142;5.408;2023-05-02T07:56:05;102683.94;;;10.96;64.48
71764;BME280;59602;52.142;5.408;2023-05-02T07:58:34;102685.69;;;11.13;65.16
71764;BME280;59602;52.142;5.408;2023-05-02T08:01:02;102692.63;;;11.22;63.51
71764;BME280;59602;52.142;5.408;2023-05-02T08:03:30;102702.28;;;11.20;63.89
71764;BME280;59602;52.142;5.408;2023-05-02T08:05:57;102702.03;;;11.13;63.72
71764;BME280;59602;52.142;5.408;2023-05-02T08:08:24;102716.41;;;11.01;63.26
71764;BME280;59602;52.142;5.408;2023-05-02T08:10:50;102704.53;;;10.85;63.63
71764;BME280;59602;52.142;5.408;2023-05-02T08:13:17;102701.97;;;10.88;63.87
71764;BME280;59602;52.142;5.408;2023-05-02T08:15:43;102716.06;;;11.02;64.79
71764;BME280;59602;52.142;5.408;2023-05-02T08:18:11;102714.84;;;11.12;63.64
71764;BME280;59602;52.142;5.408;2023-05-02T08:20:37;102713.16;;;11.08;61.95
71764;BME280;59602;52.142;5.408;2023-05-02T08:23:04;102718.69;;;11.11;63.61
71764;BME280;59602;52.142;5.408;2023-05-02T08:25:30;102726.78;;;11.20;62.00
71764;BME280;59602;52.142;5.408;2023-05-02T08:27:57;102728.38;;;11.21;62.29
71764;BME280;59602;52.142;5.408;2023-05-02T08:30:24;102729.50;;;11.20;61.36
71764;BME280;59602;52.142;5.408;2023-05-02T08:32:50;102738.16;;;11.34;61.08
71764;BME280;59602;52.142;5.408;2023-05-02T08:35:17;102727.50;;;11.41;60.68
71764;BME280;59602;52.142;5.408;2023-05-02T08:37:45;102735.34;;;11.55;59.50
71764;BME280;59602;52.142;5.408;2023-05-02T08:40:13;102740.25;;;11.62;59.58
71764;BME280;59602;52.142;5.408;2023-05-02T08:42:41;102736.50;;;11.67;58.68
71764;BME280;59602;52.142;5.408;2023-05-02T08:45:11;102738.66;;;11.73;58.93
71764;BME280;59602;52.142;5.408;2023-05-02T08:47:41;102743.13;;;11.90;58.44
71764;BME280;59602;52.142;5.408;2023-05-02T08:50:09;102749.00;;;12.04;58.54
71764;BME280;59602;52.142;5.408;2023-05-02T08:52:37;102751.38;;;12.18;57.22
71764;BME280;59602;52.142;5.408;2023-05-02T08:55:05;102752.97;;;12.19;56.54
71764;BME280;59602;52.142;5.408;2023-05-02T08:57:32;102750.38;;;12.11;56.58
71764;BME280;59602;52.142;5.408;2023-05-02T08:59:59;102758.09;;;12.09;54.96
71764;BME280;59602;52.142;5.408;2023-05-02T09:02:50;102767.88;;;11.97;55.39
71764;BME280;59602;52.142;5.408;2023-05-02T09:05:22;102761.63;;;11.97;54.53
71764;BME280;59602;52.142;5.408;2023-05-02T09:07:50;102763.88;;;12.07;54.72
71764;BME280;59602;52.142;5.408;2023-05-02T09:10:20;102772.97;;;12.11;53.40
71764;BME280;59602;52.142;5.408;2023-05-02T09:12:47;102768.69;;;12.10;53.83
71764;BME280;59602;52.142;5.408;2023-05-02T09:15:15;102772.53;;;12.09;52.70
71764;BME280;59602;52.142;5.408;2023-05-02T09:17:46;102771.06;;;11.99;54.11
71764;BME280;59602;52.142;5.408;2023-05-02T09:20:15;102781.72;;;12.04;53.49
71764;BME280;59602;52.142;5.408;2023-05-02T09:22:48;102774.47;;;12.09;52.66
71764;BME280;59602;52.142;5.408;2023-05-02T09:25:16;102775.38;;;12.13;51.39
71764;BME280;59602;52.142;5.408;2023-05-02T09:27:54;102772.84;;;12.20;51.23
71764;BME280;59602;52.142;5.408;2023-05-02T09:30:24;102772.94;;;12.36;51.35
71764;BME280;59602;52.142;5.408;2023-05-02T09:32:51;102779.41;;;12.43;49.97
71764;BME280;59602;52.142;5.408;2023-05-02T09:35:21;102776.31;;;12.57;49.84
71764;BME280;59602;52.142;5.408;2023-05-02T09:37:54;102784.22;;;12.75;49.75
71764;BME280;59602;52.142;5.408;2023-05-02T09:40:21;102782.50;;;12.82;48.70
71764;BME280;59602;52.142;5.408;2023-05-02T09:42:49;102791.66;;;12.90;48.74
71764;BME280;59602;52.142;5.408;2023-05-02T09:45:19;102800.75;;;12.94;49.10
71764;BME280;59602;52.142;5.408;2023-05-02T09:47:47;102792.75;;;13.01;47.84
71764;BME280;59602;52.142;5.408;2023-05-02T09:50:36;102801.34;;;13.16;48.96
71764;BME280;59602;52.142;5.408;2023-05-02T09:53:05;102812.53;;;13.11;47.43
71764;BME280;59602;52.142;5.408;2023-05-02T09:55:33;102807.91;;;13.27;46.54
71764;BME280;59602;52.142;5.408;2023-05-02T09:58:00;102801.78;;;13.46;46.57
71764;BME280;59602;52.142;5.408;2023-05-02T10:00:41;102806.41;;;13.74;46.62
71764;BME280;59602;52.142;5.408;2023-05-02T10:03:08;102802.16;;;13.76;46.90
71764;BME280;59602;52.142;5.408;2023-05-02T10:05:36;102812.22;;;13.56;45.53
71764;BME280;59602;52.142;5.408;2023-05-02T10:08:06;102799.50;;;13.48;46.12
71764;BME280;59602;52.142;5.408;2023-05-02T10:10:36;102806.19;;;13.35;47.05
71764;BME280;59602;52.142;5.408;2023-05-02T10:13:04;102812.13;;;13.24;47.60
71764;BME280;59602;52.142;5.408;2023-05-02T10:15:33;102813.59;;;13.34;47.44
71764;BME280;59602;52.142;5.408;2023-05-02T10:18:05;102806.88;;;13.32;46.50
71764;BME280;59602;52.142;5.408;2023-05-02T10:20:34;102814.97;;;13.28;46.54
71764;BME280;59602;52.142;5.408;2023-05-02T10:23:03;102817.81;;;13.32;46.14
71764;BME280;59602;52.142;5.408;2023-05-02T10:25:32;102809.13;;;13.42;45.15
71764;BME280;59602;52.142;5.408;2023-05-02T10:27:59;102817.50;;;13.49;45.20
71764;BME280;59602;52.142;5.408;2023-05-02T10:30:27;102827.34;;;13.38;44.91
71764;BME280;59602;52.142;5.408;2023-05-02T10:32:58;102827.81;;;13.27;46.22
71764;BME280;59602;52.142;5.408;2023-05-02T10:35:26;102829.03;;;13.42;44.76
71764;BME280;59602;52.142;5.408;2023-05-02T10:37:54;102834.19;;;13.60;44.60
71764;BME280;59602;52.142;5.408;2023-05-02T10:40:21;102825.06;;;13.40;44.48
71764;BME280;59602;52.142;5.408;2023-05-02T10:42:48;102835.47;;;13.22;44.38
71764;BME280;59602;52.142;5.408;2023-05-02T10:45:30;102834.16;;;13.03;45.34
71764;BME280;59602;52.142;5.408;2023-05-02T10:48:18;102833.94;;;13.37;45.02
71764;BME280;59602;52.142;5.408;2023-05-02T10:50:47;102830.75;;;13.79;45.03
71764;BME280;59602;52.142;5.408;2023-05-02T10:53:22;102837.00;;;13.79;43.64
71764;BME280;59602;52.142;5.408;2023-05-02T10:56:18;102840.16;;;13.49;44.66
71764;BME280;59602;52.142;5.408;2023-05-02T10:58:48;102834.06;;;13.40;43.98
71764;BME280;59602;52.142;5.408;2023-05-02T11:04:00;102844.34;;;13.91;44.55
71764;BME280;59602;52.142;5.408;2023-05-02T11:06:28;102847.50;;;13.93;44.73
71764;BME280;59602;52.142;5.408;2023-05-02T11:11:51;102843.19;;;14.08;43.90
71764;BME280;59602;52.142;5.408;2023-05-02T11:22:30;102839.59;;;14.39;42.57
71764;BME280;59602;52.142;5.408;2023-05-02T11:24:56;102847.38;;;14.37;43.06
71764;BME280;59602;52.142;5.408;2023-05-02T11:29:56;102852.69;;;14.30;41.91
71764;BME280;59602;52.142;5.408;2023-05-02T11:32:24;102855.09;;;14.16;41.73
71764;BME280;59602;52.142;5.408;2023-05-02T11:34:52;102857.91;;;14.19;42.76
71764;BME280;59602;52.142;5.408;2023-05-02T11:37:20;102863.81;;;14.05;43.13
71764;BME280;59602;52.142;5.408;2023-05-02T11:39:47;102861.88;;;14.06;44.31
71764;BME280;59602;52.142;5.408;2023-05-02T11:42:30;102860.19;;;14.33;43.51
71764;BME280;59602;52.142;5.408;2023-05-02T11:44:59;102861.59;;;14.59;42.82
71764;BME280;59602;52.142;5.408;2023-05-02T11:47:27;102854.41;;;14.70;43.12
71764;BME280;59602;52.142;5.408;2023-05-02T11:49:55;102868.47;;;14.37;43.51
71764;BME280;59602;52.142;5.408;2023-05-02T11:52:23;102875.03;;;14.32;44.18
71764;BME280;59602;52.142;5.408;2023-05-02T11:54:54;102882.91;;;14.18;42.67
71764;BME280;59602;52.142;5.408;2023-05-02T11:57:22;102874.59;;;13.98;44.12
71764;BME280;59602;52.142;5.408;2023-05-02T11:59:51;102876.97;;;13.84;43.44
71764;BME280;59602;52.142;5.408;2023-05-02T12:02:19;102872.81;;;14.06;43.75
71764;BME280;59602;52.142;5.408;2023-05-02T12:05:03;102873.53;;;14.19;43.37
71764;BME280;59602;52.142;5.408;2023-05-02T12:07:36;102870.19;;;14.25;43.08
71764;BME280;59602;52.142;5.408;2023-05-02T12:10:04;102877.72;;;14.48;43.13
71764;BME280;59602;52.142;5.408;2023-05-02T12:12:31;102885.06;;;14.44;43.38
71764;BME280;59602;52.142;5.408;2023-05-02T12:15:04;102889.50;;;14.17;43.81
71764;BME280;59602;52.142;5.408;2023-05-02T12:17:32;102888.06;;;13.75;42.63
71764;BME280;59602;52.142;5.408;2023-05-02T12:20:03;102897.00;;;13.88;42.93
71764;BME280;59602;52.142;5.408;2023-05-02T12:22:30;102895.69;;;13.98;42.08
71764;BME280;59602;52.142;5.408;2023-05-02T12:24:57;102903.31;;;13.60;43.54
71764;BME280;59602;52.142;5.408;2023-05-02T12:27:24;102902.16;;;13.77;44.99
71764;BME280;59602;52.142;5.408;2023-05-02T12:29:52;102904.25;;;13.96;43.28
71764;BME280;59602;52.142;5.408;2023-05-02T12:32:27;102901.69;;;14.03;42.29
71764;BME280;59602;52.142;5.408;2023-05-02T12:34:56;102916.06;;;14.16;44.17
71764;BME280;59602;52.142;5.408;2023-05-02T12:37:37;102913.06;;;14.21;42.71
71764;BME280;59602;52.142;5.408;2023-05-02T12:40:45;102913.50;;;14.07;42.33
71764;BME280;59602;52.142;5.408;2023-05-02T12:43:48;102915.53;;;14.26;42.59
71764;BME280;59602;52.142;5.408;2023-05-02T12:46:31;102910.69;;;14.51;42.75
71764;BME280;59602;52.142;5.408;2023-05-02T12:49:07;102916.06;;;14.64;43.04
71764;BME280;59602;52.142;5.408;2023-05-02T12:51:38;102922.41;;;14.68;41.79
71764;BME280;59602;52.142;5.408;2023-05-02T12:56:50;102923.56;;;14.35;41.69
71764;BME280;59602;52.142;5.408;2023-05-02T13:02:39;102928.34;;;14.22;49.70
71764;BME280;59602;52.142;5.408;2023-05-02T13:05:14;102926.03;;;14.24;53.31
71764;BME280;59602;52.142;5.408;2023-05-02T13:07:41;102915.28;;;14.31;43.80
71764;BME280;59602;52.142;5.408;2023-05-02T13:10:07;102931.44;;;14.37;48.57
71764;BME280;59602;52.142;5.408;2023-05-02T13:12:38;102920.03;;;14.35;43.76
71764;BME280;59602;52.142;5.408;2023-05-02T13:18:41;102926.50;;;14.58;45.77
71764;BME280;59602;52.142;5.408;2023-05-02T13:21:01;102923.94;;;14.65;44.23
71764;BME280;59602;52.142;5.408;2023-05-02T13:23:34;102932.19;;;14.69;44.71
71764;BME280;59602;52.142;5.408;2023-05-02T13:26:21;102925.25;;;14.71;45.18
71764;BME280;59602;52.142;5.408;2023-05-02T13:29:05;102929.59;;;14.57;43.06
71764;BME280;59602;52.142;5.408;2023-05-02T13:31:58;102930.53;;;14.48;44.48
71764;BME280;59602;52.142;5.408;2023-05-02T13:34:41;102920.03;;;14.50;43.60
71764;BME280;59602;52.142;5.408;2023-05-02T13:37:11;102932.03;;;14.46;44.01